Time;durP1;ratioP1;P1;durP2;ratioP2;P2;SDS_P1;SDS_P2;PMS_P1;PMS_P2;Temp;Humidity;BMP_temperature;BMP_pressure;BME280_temperature;BME280_humidity;BME280_pressure;Samples;Min_cycle;Max_cycle;Signal;HPM_P1;HPM_P2
2022/06/20 00:01:32;;;;;;;36.00;33.57;;;25.40;64.40;;;;;;4965906;28;20910;-70
2022/06/20 00:04:00;;;;;;;36.17;33.60;;;25.30;64.70;;;;;;4966474;28;20459;-71
2022/06/20 00:06:27;;;;;;;36.90;34.27;;;25.30;65.00;;;;;;4973515;28;20562;-71
2022/06/20 00:08:54;;;;;;;37.37;34.67;;;25.20;65.10;;;;;;4973034;28;20454;-72
2022/06/20 00:11:31;;;;;;;38.13;35.17;;;25.20;65.20;;;;;;4968340;28;20546;-71
2022/06/20 00:13:58;;;;;;;36.40;33.87;;;25.10;65.40;;;;;;4967654;28;20521;-71
2022/06/20 00:16:26;;;;;;;37.13;34.43;;;25.10;65.80;;;;;;4963109;28;20487;-71
2022/06/20 00:18:53;;;;;;;36.30;33.80;;;24.90;66.20;;;;;;4971628;28;20498;-72
2022/06/20 00:21:23;;;;;;;36.10;33.80;;;25.00;66.10;;;;;;4966294;28;20939;-74
2022/06/20 00:23:50;;;;;;;35.90;33.50;;;24.90;66.40;;;;;;4967195;28;20593;-72
2022/06/20 00:26:18;;;;;;;35.47;32.83;;;24.90;66.80;;;;;;4965540;28;20482;-71
2022/06/20 00:28:48;;;;;;;37.43;34.07;;;25.00;66.70;;;;;;4968058;28;20462;-73
2022/06/20 00:31:15;;;;;;;37.77;34.60;;;25.00;66.50;;;;;;4963388;28;20506;-72
2022/06/20 00:33:43;;;;;;;37.53;34.63;;;24.90;66.50;;;;;;4962113;28;20945;-70
2022/06/20 00:36:10;;;;;;;37.77;34.97;;;24.80;66.70;;;;;;4957710;28;20466;-73
2022/06/20 00:38:37;;;;;;;36.23;33.27;;;24.80;66.90;;;;;;4961716;28;20547;-72
2022/06/20 00:41:08;;;;;;;36.30;33.53;;;24.90;66.90;;;;;;4962862;28;20471;-71
2022/06/20 00:43:38;;;;;;;35.13;32.63;;;24.90;67.10;;;;;;4973423;28;20500;-68
2022/06/20 00:46:11;;;;;;;34.97;32.67;;;24.90;66.80;;;;;;4955672;28;20554;-69
2022/06/20 00:48:41;;;;;;;37.63;34.93;;;24.80;67.10;;;;;;4955687;28;20469;-68
2022/06/20 00:51:15;;;;;;;36.70;34.20;;;24.70;67.50;;;;;;4969346;28;20478;-69
2022/06/20 00:53:45;;;;;;;36.17;33.43;;;24.70;67.70;;;;;;4959991;28;20530;-68
2022/06/20 00:56:17;;;;;;;36.33;33.80;;;24.80;67.40;;;;;;4956464;28;20595;-69
2022/06/20 00:58:50;;;;;;;35.87;33.27;;;24.70;67.50;;;;;;4968290;28;20460;-69
2022/06/20 01:01:20;;;;;;;36.40;33.67;;;24.70;67.50;;;;;;4966922;28;20458;-68
2022/06/20 01:03:54;;;;;;;37.10;34.40;;;24.70;67.50;;;;;;4980853;28;20481;-68
2022/06/20 01:06:27;;;;;;;36.13;33.63;;;24.80;67.40;;;;;;4966961;28;20568;-68
2022/06/20 01:09:01;;;;;;;37.13;34.10;;;24.80;67.70;;;;;;4963406;28;20459;-69
2022/06/20 01:11:35;;;;;;;37.80;35.10;;;24.70;69.00;;;;;;4970076;28;20465;-68
2022/06/20 01:14:26;;;;;;;39.60;35.93;;;24.70;70.30;;;;;;4968065;28;20458;-69
2022/06/20 01:16:58;;;;;;;39.00;35.90;;;24.80;73.00;;;;;;4969535;28;20513;-68
2022/06/20 01:19:43;;;;;;;37.20;34.33;;;24.70;74.40;;;;;;4966351;28;20458;-68
2022/06/20 01:22:21;;;;;;;37.50;34.57;;;24.70;74.10;;;;;;4967969;28;20952;-68
2022/06/20 01:24:57;;;;;;;39.97;36.47;;;24.60;76.00;;;;;;4966658;28;20531;-68
2022/06/20 01:27:35;;;;;;;40.97;37.77;;;24.50;76.90;;;;;;4973980;28;20492;-68
2022/06/20 01:30:03;;;;;;;37.10;34.30;;;24.40;77.60;;;;;;4962238;28;20459;-68
2022/06/20 01:32:31;;;;;;;43.80;39.87;;;24.30;78.00;;;;;;4963790;28;20455;-68
2022/06/20 01:35:00;;;;;;;39.53;36.00;;;24.20;78.10;;;;;;4976581;28;20596;-68
2022/06/20 01:37:29;;;;;;;38.00;35.00;;;24.10;78.60;;;;;;4976244;28;20468;-68
2022/06/20 01:39:59;;;;;;;37.57;34.40;;;24.10;78.50;;;;;;4963996;28;20947;-69
2022/06/20 01:42:28;;;;;;;38.53;35.47;;;24.00;79.30;;;;;;4964383;28;21037;-68
2022/06/20 01:45:01;;;;;;;38.50;35.67;;;23.90;80.60;;;;;;4971817;28;20472;-68
2022/06/20 01:47:28;;;;;;;38.13;34.47;;;23.90;81.70;;;;;;4975372;28;20498;-68
2022/06/20 01:50:00;;;;;;;36.40;33.50;;;23.90;82.10;;;;;;4970031;28;20886;-69
2022/06/20 01:52:33;;;;;;;39.37;36.10;;;23.80;82.50;;;;;;4966437;28;20472;-68
2022/06/20 01:55:06;;;;;;;36.80;33.70;;;23.70;82.40;;;;;;4969070;28;20476;-69
2022/06/20 01:57:38;;;;;;;36.43;33.60;;;23.60;82.90;;;;;;4966699;28;20484;-68
2022/06/20 02:00:09;;;;;;;36.10;33.17;;;23.60;82.70;;;;;;4960300;28;20824;-68
2022/06/20 02:02:40;;;;;;;35.17;32.47;;;23.60;82.50;;;;;;4967562;28;20860;-69
2022/06/20 02:05:12;;;;;;;35.07;32.47;;;23.60;82.50;;;;;;4980252;28;20927;-68
2022/06/20 02:07:41;;;;;;;34.27;31.60;;;23.50;82.80;;;;;;4968197;28;20515;-68
2022/06/20 02:10:11;;;;;;;35.90;32.60;;;23.50;83.40;;;;;;4976747;28;20555;-68
2022/06/20 02:12:40;;;;;;;37.70;34.37;;;23.40;83.80;;;;;;4970797;28;20467;-68
2022/06/20 02:15:08;;;;;;;37.87;33.80;;;23.40;83.30;;;;;;4979375;28;20637;-69
2022/06/20 02:17:40;;;;;;;34.90;32.40;;;23.40;83.60;;;;;;4961467;28;21020;-68
2022/06/20 02:20:12;;;;;;;36.17;33.20;;;23.30;83.70;;;;;;4978056;28;20470;-68
2022/06/20 02:22:41;;;;;;;35.57;32.90;;;23.30;83.80;;;;;;4953597;28;20488;-68
2022/06/20 02:25:15;;;;;;;35.60;33.10;;;23.30;84.00;;;;;;4978172;28;20470;-68
2022/06/20 02:27:48;;;;;;;35.90;32.90;;;23.20;84.30;;;;;;4974666;28;20495;-68
2022/06/20 02:30:16;;;;;;;33.80;31.30;;;23.30;84.10;;;;;;4968754;28;20480;-68
2022/06/20 02:32:46;;;;;;;33.97;31.40;;;23.30;84.40;;;;;;4971661;28;20481;-68
2022/06/20 02:35:16;;;;;;;35.17;32.23;;;23.30;84.70;;;;;;4981951;28;20961;-69
2022/06/20 02:37:45;;;;;;;34.30;31.60;;;23.30;84.50;;;;;;4975945;28;20542;-68
2022/06/20 02:40:15;;;;;;;38.97;36.13;;;23.40;84.50;;;;;;4965488;28;21109;-68
2022/06/20 02:42:48;;;;;;;34.70;31.80;;;23.40;84.60;;;;;;4970456;28;20671;-68
2022/06/20 02:45:16;;;;;;;35.50;32.40;;;23.40;84.70;;;;;;4965987;28;20490;-68
2022/06/20 02:47:47;;;;;;;34.77;31.87;;;23.40;85.00;;;;;;4978890;28;20486;-68
2022/06/20 02:50:17;;;;;;;33.30;30.83;;;23.50;84.40;;;;;;4962066;28;20460;-73
2022/06/20 02:52:50;;;;;;;34.33;31.07;;;23.40;84.80;;;;;;4969205;28;20458;-68
2022/06/20 02:55:19;;;;;;;34.17;31.37;;;23.30;85.40;;;;;;4974722;28;21065;-68
2022/06/20 02:57:50;;;;;;;35.40;32.30;;;23.20;84.90;;;;;;4966802;28;20557;-69
2022/06/20 03:00:19;;;;;;;41.27;38.10;;;23.20;84.90;;;;;;4969912;28;21157;-68
2022/06/20 03:02:52;;;;;;;32.93;30.47;;;23.10;84.80;;;;;;4976513;28;20467;-68
2022/06/20 03:05:19;;;;;;;36.27;33.20;;;23.00;85.50;;;;;;4974078;28;20462;-68
2022/06/20 03:07:49;;;;;;;35.60;33.10;;;23.00;85.30;;;;;;4964065;28;20476;-68
2022/06/20 03:10:24;;;;;;;36.03;33.07;;;23.00;85.80;;;;;;4969836;28;20526;-68
2022/06/20 03:12:52;;;;;;;33.80;31.00;;;23.00;85.30;;;;;;4970059;28;20550;-67
2022/06/20 03:15:20;;;;;;;35.13;32.40;;;23.00;85.70;;;;;;4978377;28;20834;-68
2022/06/20 03:17:49;;;;;;;35.17;32.07;;;23.00;85.10;;;;;;4958049;28;20471;-69
2022/06/20 03:20:18;;;;;;;33.93;31.37;;;23.10;84.90;;;;;;4969709;28;20487;-68
2022/06/20 03:22:50;;;;;;;35.10;32.50;;;23.10;84.70;;;;;;4968995;28;20557;-68
2022/06/20 03:25:19;;;;;;;35.43;32.57;;;23.10;85.50;;;;;;4961801;28;20463;-68
2022/06/20 03:27:48;;;;;;;33.63;31.20;;;23.10;85.90;;;;;;4970064;28;20475;-68
2022/06/20 03:30:28;;;;;;;35.83;33.30;;;23.10;86.00;;;;;;4967885;28;20464;-68
2022/06/20 03:33:13;;;;;;;35.03;31.63;;;23.00;85.60;;;;;;4977568;28;21191;-68
2022/06/20 03:35:44;;;;;;;34.87;32.07;;;22.90;86.50;;;;;;4958485;28;20465;-68
2022/06/20 03:38:15;;;;;;;38.27;35.17;;;22.80;86.90;;;;;;4963713;28;20480;-67
2022/06/20 03:40:43;;;;;;;32.87;30.17;;;22.80;87.10;;;;;;4971817;28;20952;-68
2022/06/20 03:43:14;;;;;;;34.10;31.00;;;22.80;87.30;;;;;;4970464;28;20486;-68
2022/06/20 03:45:48;;;;;;;39.80;36.37;;;22.70;82.30;;;;;;4967163;28;20462;-67
2022/06/20 03:48:18;;;;;;;33.87;30.80;;;22.70;79.30;;;;;;4965367;28;20484;-68
2022/06/20 03:50:51;;;;;;;33.53;31.17;;;22.70;82.50;;;;;;4970365;28;20587;-67
2022/06/20 03:53:23;;;;;;;34.57;31.87;;;22.70;79.00;;;;;;4963621;28;20552;-67
2022/06/20 03:55:56;;;;;;;40.33;37.30;;;22.60;80.00;;;;;;4956211;28;20458;-68
2022/06/20 03:58:28;;;;;;;33.93;31.30;;;22.40;80.40;;;;;;4965372;28;20469;-68
2022/06/20 04:01:00;;;;;;;34.50;31.90;;;22.50;80.90;;;;;;4967294;28;20476;-68
2022/06/20 04:03:32;;;;;;;34.40;31.50;;;22.50;80.60;;;;;;4976074;28;20514;-68
2022/06/20 04:06:04;;;;;;;34.50;31.60;;;22.60;80.50;;;;;;4958145;28;21235;-69
2022/06/20 04:11:31;;;;;;;35.87;33.00;;;22.40;80.40;;;;;;4963317;28;20553;-70
2022/06/20 04:14:03;;;;;;;38.97;35.67;;;22.40;80.90;;;;;;4970019;28;20949;-70
2022/06/20 04:16:37;;;;;;;34.63;31.97;;;22.50;81.10;;;;;;4973447;28;20484;-67
2022/06/20 04:19:11;;;;;;;35.00;32.27;;;22.30;81.70;;;;;;4960169;28;20541;-67
2022/06/20 04:21:44;;;;;;;35.20;32.40;;;22.30;82.30;;;;;;4971703;28;20472;-67
2022/06/20 04:24:22;;;;;;;34.83;32.10;;;22.30;80.30;;;;;;4971992;28;20582;-68
2022/06/20 04:26:53;;;;;;;37.30;34.07;;;22.30;81.40;;;;;;4965271;28;20830;-68
2022/06/20 04:29:25;;;;;;;35.37;32.60;;;22.30;81.90;;;;;;4968192;28;20473;-68
2022/06/20 04:32:00;;;;;;;34.37;32.00;;;22.30;82.30;;;;;;4973299;28;20547;-67
2022/06/20 04:34:33;;;;;;;33.88;31.08;;;22.30;82.50;;;;;;4952954;28;20975;-67
2022/06/20 04:37:10;;;;;;;36.37;33.87;;;22.50;82.40;;;;;;4955637;28;20218;-68
2022/06/20 04:39:45;;;;;;;35.50;32.47;;;22.50;82.90;;;;;;4971413;28;20471;-68
2022/06/20 04:42:21;;;;;;;37.03;34.20;;;22.70;82.40;;;;;;4972264;28;20398;-68
2022/06/20 04:44:54;;;;;;;35.15;32.55;;;22.70;81.90;;;;;;4969280;28;20457;-68
2022/06/20 04:47:35;;;;;;;35.40;32.50;;;22.60;82.70;;;;;;4972388;28;20229;-68
2022/06/20 04:50:02;;;;;;;39.20;36.40;;;22.60;82.70;;;;;;4969265;28;20446;-69
2022/06/20 04:52:31;;;;;;;37.97;34.80;;;22.50;83.20;;;;;;4972699;28;20553;-69
2022/06/20 04:55:00;;;;;;;39.63;36.53;;;22.40;83.40;;;;;;4975189;28;20475;-72
2022/06/20 04:57:31;;;;;;;35.30;32.57;;;22.40;84.30;;;;;;4962974;28;20857;-71
2022/06/20 05:00:02;;;;;;;39.77;36.73;;;22.40;85.00;;;;;;4968719;28;20541;-71
2022/06/20 05:02:30;;;;;;;35.43;32.47;;;22.40;85.10;;;;;;4968895;28;20460;-70
2022/06/20 05:05:04;;;;;;;37.07;34.17;;;22.40;84.90;;;;;;4971560;28;20540;-69
2022/06/20 05:07:35;;;;;;;35.63;32.73;;;22.60;84.10;;;;;;4973989;28;20588;-70
2022/06/20 05:10:11;;;;;;;34.73;32.20;;;22.70;83.90;;;;;;4975902;28;20467;-70
2022/06/20 05:12:44;;;;;;;34.77;32.30;;;22.70;83.60;;;;;;4980337;28;20463;-68
2022/06/20 05:15:17;;;;;;;35.63;32.93;;;22.70;82.60;;;;;;4972704;28;20546;-71
2022/06/20 05:17:46;;;;;;;34.53;31.97;;;22.70;83.80;;;;;;4964376;28;20578;-70
2022/06/20 05:20:21;;;;;;;38.10;35.53;;;22.80;84.20;;;;;;4967619;28;20462;-74
2022/06/20 05:22:53;;;;;;;36.93;34.33;;;22.90;83.90;;;;;;4972838;28;20484;-71
2022/06/20 05:25:24;;;;;;;38.60;35.33;;;23.00;84.10;;;;;;4984954;28;20485;-71
2022/06/20 05:27:55;;;;;;;35.13;32.37;;;23.00;83.70;;;;;;4972540;28;20508;-73
2022/06/20 05:30:26;;;;;;;36.77;34.13;;;23.10;83.30;;;;;;4972154;28;20520;-72
2022/06/20 05:33:00;;;;;;;36.93;33.83;;;23.20;83.10;;;;;;4966712;28;21038;-71
2022/06/20 05:35:35;;;;;;;38.60;35.73;;;23.20;82.00;;;;;;4963397;28;20459;-71
2022/06/20 05:38:12;;;;;;;35.13;32.33;;;23.30;81.90;;;;;;4968572;28;20509;-73
2022/06/20 05:40:47;;;;;;;36.87;33.67;;;23.50;81.40;;;;;;4973129;28;20541;-70
2022/06/20 05:43:19;;;;;;;41.97;39.03;;;23.40;79.20;;;;;;4969391;28;20467;-71
2022/06/20 05:45:49;;;;;;;35.57;33.03;;;23.30;79.20;;;;;;4981363;28;20882;-72
2022/06/20 05:48:19;;;;;;;38.73;36.10;;;23.20;81.20;;;;;;4967512;28;20496;-71
2022/06/20 05:50:51;;;;;;;37.17;34.63;;;23.20;82.10;;;;;;4967907;28;20456;-71
2022/06/20 05:53:24;;;;;;;44.70;41.80;;;23.20;83.10;;;;;;4961832;28;20453;-71
2022/06/20 05:55:54;;;;;;;37.00;34.40;;;23.20;83.20;;;;;;4969336;28;20563;-74
2022/06/20 05:58:25;;;;;;;36.13;33.50;;;23.30;83.00;;;;;;4970292;28;20470;-71
2022/06/20 06:00:55;;;;;;;37.90;35.00;;;23.30;82.50;;;;;;4969928;28;20974;-72
2022/06/20 06:03:28;;;;;;;36.57;34.10;;;23.40;81.40;;;;;;4968070;28;20518;-72
2022/06/20 06:06:00;;;;;;;38.50;35.93;;;23.50;81.10;;;;;;4967017;28;20551;-72
2022/06/20 06:08:31;;;;;;;39.77;36.80;;;23.70;80.50;;;;;;4973149;28;20536;-70
2022/06/20 06:11:03;;;;;;;38.43;35.47;;;23.60;78.70;;;;;;4968364;28;20460;-71
2022/06/20 06:13:37;;;;;;;34.87;32.77;;;23.50;79.70;;;;;;4964062;28;20551;-75
2022/06/20 06:18:58;;;;;;;38.83;35.40;;;23.00;82.00;;;;;;4954581;28;20804;-71
2022/06/20 06:21:27;;;;;;;36.83;34.13;;;23.00;82.60;;;;;;4965477;28;20464;-74
2022/06/20 06:23:54;;;;;;;38.60;35.80;;;23.10;82.50;;;;;;4966273;28;20842;-70
2022/06/20 06:26:21;;;;;;;37.40;34.77;;;23.30;82.10;;;;;;4974058;28;20488;-69
2022/06/20 06:28:50;;;;;;;38.83;35.57;;;23.30;81.50;;;;;;4967115;28;20468;-70
2022/06/20 06:31:22;;;;;;;36.57;33.73;;;23.60;80.70;;;;;;4964825;28;20471;-70
2022/06/20 06:33:57;;;;;;;36.40;33.87;;;23.70;80.40;;;;;;4971815;28;20462;-70
2022/06/20 06:36:30;;;;;;;40.13;37.03;;;23.80;79.90;;;;;;4967081;28;21171;-70
2022/06/20 06:39:04;;;;;;;39.33;36.63;;;23.90;79.50;;;;;;4969467;28;20818;-70
2022/06/20 06:41:34;;;;;;;41.70;38.80;;;24.00;79.20;;;;;;4967379;28;20475;-72
2022/06/20 06:44:02;;;;;;;40.93;37.83;;;24.30;78.80;;;;;;4969791;28;20847;-72
2022/06/20 06:46:34;;;;;;;42.23;38.93;;;24.50;79.00;;;;;;4968166;28;20559;-72
2022/06/20 06:49:18;;;;;;;41.23;38.20;;;24.70;78.90;;;;;;4966785;28;20502;-72
2022/06/20 06:51:55;;;;;;;45.27;41.93;;;25.00;77.60;;;;;;4967888;28;20569;-72
2022/06/20 06:54:25;;;;;;;39.70;36.60;;;25.20;77.30;;;;;;4973162;28;20820;-72
2022/06/20 06:56:58;;;;;;;42.47;38.67;;;25.30;76.70;;;;;;4966137;28;20834;-72
2022/06/20 06:59:31;;;;;;;43.83;40.43;;;25.30;75.50;;;;;;4971871;28;20559;-72
2022/06/20 07:02:03;;;;;;;45.10;41.20;;;25.10;76.10;;;;;;4965664;28;21063;-72
2022/06/20 07:04:39;;;;;;;40.47;37.97;;;25.20;76.20;;;;;;4963472;28;21941;-72
2022/06/20 07:07:13;;;;;;;40.87;37.77;;;25.20;76.30;;;;;;4959264;28;20565;-74
2022/06/20 07:09:44;;;;;;;44.77;41.37;;;25.30;76.40;;;;;;4964984;28;20876;-74
2022/06/20 07:12:18;;;;;;;42.40;39.50;;;25.40;75.40;;;;;;4962272;28;20467;-74
2022/06/20 07:14:51;;;;;;;43.97;40.73;;;25.50;75.30;;;;;;4964420;28;20479;-74
2022/06/20 07:17:23;;;;;;;41.10;38.13;;;25.60;75.20;;;;;;4966508;28;20481;-76
2022/06/20 07:19:53;;;;;;;42.13;38.67;;;25.80;73.70;;;;;;4962651;28;20594;-75
2022/06/20 07:22:23;;;;;;;40.60;37.90;;;25.90;73.40;;;;;;4964746;28;20592;-72
2022/06/20 07:24:51;;;;;;;42.27;39.47;;;25.90;72.30;;;;;;4964366;28;20569;-70
2022/06/20 07:27:23;;;;;;;43.10;39.80;;;25.90;71.20;;;;;;4967139;28;21100;-71
2022/06/20 07:29:55;;;;;;;43.03;39.83;;;26.00;71.40;;;;;;4961678;28;20459;-70
2022/06/20 07:32:26;;;;;;;43.50;40.00;;;26.10;71.20;;;;;;4965502;28;20904;-71
2022/06/20 07:34:59;;;;;;;42.40;39.33;;;26.20;68.40;;;;;;4962517;28;20464;-71
2022/06/20 07:37:31;;;;;;;41.20;38.20;;;26.20;68.20;;;;;;4967009;28;20510;-71
2022/06/20 07:40:03;;;;;;;44.80;41.53;;;26.20;67.90;;;;;;4975209;28;20621;-70
2022/06/20 07:42:35;;;;;;;45.20;41.90;;;26.20;67.70;;;;;;4960389;28;20503;-71
2022/06/20 07:45:08;;;;;;;41.63;38.93;;;26.30;67.20;;;;;;4963767;28;20477;-71
2022/06/20 07:47:41;;;;;;;42.70;39.77;;;26.40;67.20;;;;;;4963173;28;20497;-70
2022/06/20 07:50:14;;;;;;;41.63;38.73;;;26.50;67.70;;;;;;4963168;28;20473;-72
2022/06/20 07:52:44;;;;;;;43.07;39.57;;;26.60;68.00;;;;;;4965839;28;20470;-70
2022/06/20 07:55:15;;;;;;;42.27;39.27;;;26.70;67.30;;;;;;4965781;28;20477;-69
2022/06/20 07:57:47;;;;;;;40.57;37.60;;;26.80;67.50;;;;;;4963175;28;20529;-69
2022/06/20 08:00:18;;;;;;;43.57;40.43;;;27.00;67.40;;;;;;4965061;28;20954;-69
2022/06/20 08:02:50;;;;;;;42.07;39.10;;;27.20;67.20;;;;;;4963225;28;20464;-69
2022/06/20 08:05:26;;;;;;;42.70;39.57;;;27.30;67.30;;;;;;4962291;28;20513;-69
2022/06/20 08:08:01;;;;;;;41.57;38.53;;;27.40;67.00;;;;;;4959821;28;20476;-69
2022/06/20 08:10:34;;;;;;;41.67;38.50;;;27.40;67.10;;;;;;4968535;28;20762;-72
2022/06/20 08:13:07;;;;;;;41.00;38.10;;;27.50;67.00;;;;;;4968837;28;20469;-75
2022/06/20 08:15:40;;;;;;;42.23;39.33;;;27.60;66.80;;;;;;4970581;28;20469;-72
2022/06/20 08:18:08;;;;;;;42.53;39.60;;;27.60;66.10;;;;;;4972390;28;20585;-73
2022/06/20 08:20:43;;;;;;;40.47;37.63;;;27.70;65.40;;;;;;4974122;28;20482;-72
2022/06/20 08:23:16;;;;;;;41.07;38.37;;;27.70;62.30;;;;;;4971377;28;21226;-74
2022/06/20 08:25:49;;;;;;;38.83;36.33;;;27.60;61.60;;;;;;4974971;28;20521;-72
2022/06/20 08:28:20;;;;;;;38.20;35.80;;;27.20;60.90;;;;;;4973634;28;20486;-74
2022/06/20 08:30:53;;;;;;;40.03;37.53;;;27.20;61.30;;;;;;4970011;28;20459;-77
2022/06/20 08:33:27;;;;;;;38.50;35.50;;;27.20;60.70;;;;;;4970281;28;21059;-74
2022/06/20 08:36:00;;;;;;;39.50;36.60;;;26.80;60.90;;;;;;4966127;28;21050;-73
2022/06/20 08:38:32;;;;;;;40.30;37.30;;;26.90;61.10;;;;;;4977322;28;20892;-75
2022/06/20 08:41:29;;;;;;;39.77;36.77;;;26.80;61.60;;;;;;4976167;28;20455;-75
2022/06/20 08:44:26;;;;;;;42.47;39.50;;;26.50;62.40;;;;;;4972584;28;20518;-77
2022/06/20 08:47:24;;;;;;;42.80;39.27;;;26.20;62.70;;;;;;4972689;28;20497;-75
2022/06/20 08:50:30;;;;;;;41.97;39.07;;;26.10;63.40;;;;;;4967080;28;20461;-77
2022/06/20 08:53:48;;;;;;;41.97;38.90;;;26.10;63.00;;;;;;4962963;28;20459;-76
2022/06/20 08:56:50;;;;;;;40.93;38.20;;;26.20;63.20;;;;;;4948639;28;20476;-76
2022/06/20 08:59:40;;;;;;;41.40;38.70;;;26.50;62.60;;;;;;4965004;28;20981;-76
2022/06/20 09:02:20;;;;;;;40.43;37.33;;;26.90;62.00;;;;;;4966027;28;20838;-77
2022/06/20 09:05:10;;;;;;;39.53;36.50;;;27.00;61.90;;;;;;4966145;28;20499;-81
2022/06/20 09:08:15;;;;;;;40.43;37.83;;;27.20;61.00;;;;;;4975372;28;20532;-79
2022/06/20 09:10:51;;;;;;;39.83;37.03;;;26.90;61.20;;;;;;4954498;28;20542;-74
2022/06/20 09:13:54;;;;;;;39.73;37.13;;;27.00;61.50;;;;;;4967684;28;20473;-74
2022/06/20 09:16:28;;;;;;;40.60;37.47;;;27.30;61.60;;;;;;4972731;28;20555;-74
2022/06/20 09:19:20;;;;;;;42.93;39.60;;;27.60;61.20;;;;;;4968062;28;20567;-74
2022/06/20 09:21:57;;;;;;;39.43;36.93;;;27.90;60.30;;;;;;4969978;28;20451;-74
2022/06/20 09:24:37;;;;;;;42.77;39.27;;;28.20;59.70;;;;;;4964995;28;20466;-75
2022/06/20 09:27:10;;;;;;;40.63;37.43;;;28.30;58.50;;;;;;4972157;28;21064;-76
2022/06/20 09:30:03;;;;;;;44.20;41.07;;;28.10;59.20;;;;;;4970869;28;20996;-77
2022/06/20 09:32:55;;;;;;;38.43;35.50;;;27.90;59.30;;;;;;4969834;28;20466;-74
2022/06/20 09:35:45;;;;;;;41.90;39.00;;;27.80;59.90;;;;;;4972733;28;20554;-74
2022/06/20 09:38:36;;;;;;;42.53;39.40;;;27.80;59.50;;;;;;4967545;28;20498;-74
2022/06/20 09:41:09;;;;;;;42.13;38.93;;;27.80;60.20;;;;;;4973495;28;20469;-75
2022/06/20 09:43:45;;;;;;;43.27;40.00;;;28.30;59.60;;;;;;4966440;28;20561;-75
2022/06/20 09:46:23;;;;;;;44.00;41.03;;;28.70;58.00;;;;;;4973391;28;20565;-76
2022/06/20 09:49:00;;;;;;;40.33;37.30;;;29.00;57.60;;;;;;4967496;28;20470;-75
2022/06/20 09:51:38;;;;;;;39.83;37.03;;;29.40;56.60;;;;;;4969304;28;20554;-75
2022/06/20 09:54:13;;;;;;;44.00;40.73;;;29.70;55.70;;;;;;4968025;28;20466;-75
2022/06/20 09:56:50;;;;;;;40.63;37.93;;;29.70;55.10;;;;;;4969305;28;20533;-74
2022/06/20 09:59:26;;;;;;;40.37;37.47;;;29.40;55.40;;;;;;4965437;28;20482;-76
2022/06/20 10:02:04;;;;;;;39.70;36.40;;;29.70;55.50;;;;;;4967632;28;20550;-76
2022/06/20 10:04:39;;;;;;;37.47;34.73;;;29.90;54.70;;;;;;4975903;28;20539;-75
2022/06/20 10:07:15;;;;;;;38.33;35.73;;;29.90;52.30;;;;;;4968500;28;20492;-76
2022/06/20 10:09:51;;;;;;;41.73;37.80;;;29.90;53.10;;;;;;4965486;28;20481;-75
2022/06/20 10:12:27;;;;;;;39.17;36.00;;;30.20;53.60;;;;;;4965279;28;20545;-76
2022/06/20 10:15:02;;;;;;;43.60;40.27;;;30.60;53.50;;;;;;4968414;28;21823;-76
2022/06/20 10:17:40;;;;;;;39.87;36.67;;;30.50;53.10;;;;;;4970351;28;20494;-77
2022/06/20 10:20:25;;;;;;;39.90;37.10;;;30.00;54.10;;;;;;4966897;28;20975;-75
2022/06/20 10:22:58;;;;;;;44.60;41.70;;;29.80;54.30;;;;;;4965384;28;20892;-76
2022/06/20 10:25:48;;;;;;;40.57;37.50;;;29.50;54.80;;;;;;4965145;28;20573;-75
2022/06/20 10:28:18;;;;;;;41.87;38.70;;;29.50;54.90;;;;;;4970104;28;20490;-77
2022/06/20 10:30:50;;;;;;;45.50;42.10;;;29.40;55.50;;;;;;4969516;28;20458;-76
2022/06/20 10:33:29;;;;;;;43.30;40.00;;;29.30;55.70;;;;;;4966633;28;20463;-76
2022/06/20 10:36:07;;;;;;;43.10;40.27;;;29.30;55.50;;;;;;4967637;28;20941;-76
2022/06/20 10:38:42;;;;;;;40.60;37.63;;;29.40;55.50;;;;;;4964346;28;20659;-76
2022/06/20 10:41:16;;;;;;;44.93;41.43;;;28.90;56.60;;;;;;4970236;28;20490;-76
2022/06/20 10:43:46;;;;;;;43.83;40.90;;;29.20;56.40;;;;;;4964681;28;20470;-73
2022/06/20 10:46:25;;;;;;;39.97;37.43;;;29.50;55.60;;;;;;4969401;28;20920;-76
2022/06/20 10:49:23;;;;;;;37.93;35.40;;;29.70;55.10;;;;;;4965119;28;20464;-74
2022/06/20 10:52:02;;;;;;;35.93;33.53;;;29.80;51.60;;;;;;4961086;28;20530;-76
2022/06/20 10:54:40;;;;;;;35.20;32.93;;;29.70;52.20;;;;;;4964947;28;20554;-76
2022/06/20 10:57:18;;;;;;;36.40;34.07;;;30.10;50.10;;;;;;4968398;28;20478;-78
2022/06/20 10:59:57;;;;;;;36.57;34.13;;;29.50;51.20;;;;;;4963165;28;20565;-77
2022/06/20 11:02:45;;;;;;;39.90;37.03;;;29.40;51.70;;;;;;4968691;28;20498;-77
2022/06/20 11:05:25;;;;;;;37.33;34.83;;;29.30;52.10;;;;;;4971173;28;20474;-77
2022/06/20 11:08:02;;;;;;;40.13;37.70;;;29.00;53.10;;;;;;4964188;28;20577;-78
2022/06/20 11:10:49;;;;;;;36.40;33.80;;;28.80;52.50;;;;;;4963709;28;20593;-76
2022/06/20 11:13:23;;;;;;;35.63;33.23;;;29.10;51.40;;;;;;4965798;28;20474;-76
2022/06/20 11:15:58;;;;;;;39.87;37.37;;;29.00;51.50;;;;;;4965268;28;20966;-75
2022/06/20 11:18:38;;;;;;;35.30;33.10;;;28.60;51.70;;;;;;4967901;28;20588;-75
2022/06/20 11:21:15;;;;;;;37.57;34.90;;;28.60;52.70;;;;;;4964479;28;20467;-75
2022/06/20 11:23:51;;;;;;;38.20;35.80;;;29.10;52.10;;;;;;4968953;28;20454;-75
2022/06/20 11:26:26;;;;;;;36.93;34.27;;;29.30;51.10;;;;;;4973023;28;20489;-76
2022/06/20 11:29:30;;;;;;;33.70;31.70;;;29.50;49.90;;;;;;4966322;28;20469;-77
2022/06/20 11:32:06;;;;;;;37.70;34.93;;;29.50;49.50;;;;;;4957982;28;20467;-75
2022/06/20 11:34:48;;;;;;;37.23;34.93;;;29.50;50.30;;;;;;4967505;28;20466;-75
2022/06/20 11:37:26;;;;;;;39.30;36.50;;;29.20;51.80;;;;;;4968230;28;21036;-75
2022/06/20 12:28:39;;;;;;;35.07;32.83;;;26.40;59.10;;;;;;5063679;27;21131;-74
2022/06/20 12:31:18;;;;;;;39.70;37.00;;;26.50;59.10;;;;;;5050115;28;20457;-72
2022/06/20 12:33:49;;;;;;;36.60;34.40;;;26.80;58.10;;;;;;5046243;28;20448;-73
2022/06/20 12:36:33;;;;;;;39.47;36.90;;;26.60;57.80;;;;;;5060513;28;21019;-72
2022/06/20 12:39:05;;;;;;;35.23;32.90;;;26.50;59.20;;;;;;5038876;28;20470;-71
2022/06/20 12:41:39;;;;;;;43.80;40.90;;;26.40;61.60;;;;;;5045283;28;20555;-72
2022/06/20 12:44:26;;;;;;;40.40;37.70;;;26.80;61.60;;;;;;5038615;28;20464;-72
2022/06/20 12:47:17;;;;;;;35.50;33.10;;;27.10;61.20;;;;;;5047103;28;20560;-72
2022/06/20 12:50:03;;;;;;;36.50;34.00;;;26.90;60.80;;;;;;5042210;28;20976;-74
2022/06/20 12:52:39;;;;;;;39.80;37.20;;;26.80;61.00;;;;;;5045021;28;20588;-73
2022/06/20 12:55:22;;;;;;;39.23;35.83;;;26.50;61.90;;;;;;5040262;28;20791;-71
2022/06/20 12:58:17;;;;;;;37.30;34.60;;;26.60;61.40;;;;;;5055324;28;20539;-71
2022/06/20 13:00:50;;;;;;;37.07;34.00;;;26.60;62.20;;;;;;5036084;28;20457;-71
2022/06/20 13:03:43;;;;;;;37.90;35.40;;;26.50;62.10;;;;;;5035788;28;20553;-71
2022/06/20 13:06:46;;;;;;;42.83;40.23;;;26.70;61.60;;;;;;5040760;28;20449;-71
2022/06/20 13:09:41;;;;;;;37.60;34.70;;;27.00;60.90;;;;;;5020388;28;20459;-71
2022/06/20 13:12:19;;;;;;;38.83;36.03;;;27.20;60.30;;;;;;5038110;28;20463;-71
2022/06/20 13:15:32;;;;;;;37.73;34.90;;;27.30;60.20;;;;;;5037898;28;20473;-71
2022/06/20 13:18:26;;;;;;;38.10;35.30;;;27.30;60.00;;;;;;4987130;28;20468;-72
2022/06/20 13:21:01;;;;;;;40.43;37.53;;;27.60;59.60;;;;;;5029851;28;20535;-70
2022/06/20 13:23:41;;;;;;;39.67;36.67;;;27.40;60.00;;;;;;5039267;28;20945;-73
2022/06/20 13:26:17;;;;;;;39.27;36.23;;;27.20;60.30;;;;;;5044526;28;20453;-73
2022/06/20 13:28:52;;;;;;;37.07;34.47;;;26.60;62.30;;;;;;5035889;28;20490;-72
2022/06/20 13:31:22;;;;;;;38.83;36.23;;;26.60;62.00;;;;;;5043271;28;20468;-72
2022/06/20 13:34:00;;;;;;;41.00;37.70;;;26.20;63.30;;;;;;5051351;28;20486;-74
2022/06/20 13:36:51;;;;;;;37.80;35.23;;;26.30;63.20;;;;;;5049735;28;20571;-72
2022/06/20 13:39:25;;;;;;;39.43;36.80;;;26.20;63.30;;;;;;5041707;28;20459;-72
2022/06/20 13:41:57;;;;;;;38.20;35.27;;;26.20;63.60;;;;;;5050921;28;20547;-72
2022/06/20 13:44:38;;;;;;;41.93;39.23;;;25.70;64.90;;;;;;5045371;28;20548;-72
2022/06/20 13:47:17;;;;;;;42.03;38.77;;;25.40;65.60;;;;;;5021873;28;20597;-72
2022/06/20 13:50:02;;;;;;;40.17;37.23;;;25.20;66.50;;;;;;5040946;28;20464;-72
2022/06/20 13:52:34;;;;;;;40.10;37.30;;;24.80;67.40;;;;;;5031892;28;20539;-72
2022/06/20 13:55:08;;;;;;;36.37;34.03;;;24.90;67.60;;;;;;5035456;28;20558;-72
2022/06/20 13:57:40;;;;;;;37.30;34.80;;;25.00;67.50;;;;;;5051689;28;20837;-72
2022/06/20 14:00:21;;;;;;;43.20;40.57;;;25.00;67.30;;;;;;5035899;28;20462;-72
2022/06/20 14:02:50;;;;;;;36.50;33.93;;;24.90;67.70;;;;;;5049425;28;20460;-72